Time;durP1;ratioP1;P1;durP2;ratioP2;P2;SDS_P1;SDS_P2;PMS_P1;PMS_P2;Temp;Humidity;BMP_temperature;BMP_pressure;BME280_temperature;BME280_humidity;BME280_pressure;Samples;Min_cycle;Max_cycle;Signal;HPM_P1;HPM_P2
2023/03/06 02:03:21;;;;;;;0.10;0.10;;;4.30;99.90;;;;;;6275358;22;20024;-89
2023/03/06 02:05:47;;;;;;;0.10;0.10;;;4.00;99.90;;;;;;6276939;22;20010;-89
2023/03/06 02:08:16;;;;;;;0.10;0.10;;;4.40;99.90;;;;;;6249440;22;20000;-89
2023/03/06 02:11:09;;;;;;;0.10;0.10;;;4.30;99.90;;;;;;6248427;22;20011;-89
2023/03/06 02:13:35;;;;;;;0.00;0.00;;;4.30;99.90;;;;;;6244985;22;20031;-90
2023/03/06 02:16:01;;;;;;;0.10;0.10;;;;;;;;;;6242005;22;20012;-92
2023/03/06 03:28:24;;;;;;;0.10;0.10;;;;;;;;;;6307069;22;20020;-89
2023/03/06 03:30:50;;;;;;;0.10;0.10;;;;;;;;;;6280194;22;20003;-89
2023/03/06 03:33:16;;;;;;;0.10;0.10;;;;;;;;;;6280112;22;20343;-89
2023/03/06 03:35:42;;;;;;;0.00;0.00;;;;;;;;;;6277490;22;20510;-89
2023/03/06 03:38:08;;;;;;;0.10;0.10;;;;;;;;;;6279297;22;20004;-89
2023/03/06 03:40:33;;;;;;;0.05;0.05;;;4.00;99.90;;;;;;6281167;22;20093;-89
2023/03/06 03:42:59;;;;;;;0.00;0.00;;;3.90;99.90;;;;;;6305847;22;20063;-89
2023/03/06 03:45:25;;;;;;;0.10;0.10;;;;;;;;;;6304414;22;20038;-90
2023/03/06 03:47:50;;;;;;;0.00;0.00;;;3.90;99.90;;;;;;6278708;22;20007;-89
2023/03/06 03:50:16;;;;;;;0.10;0.10;;;3.80;99.90;;;;;;6305830;22;20014;-89
2023/03/06 03:52:42;;;;;;;0.10;0.10;;;;;;;;;;6306373;22;20359;-88
2023/03/06 03:55:08;;;;;;;0.00;0.00;;;3.90;99.90;;;;;;6281668;22;20023;-89
2023/03/06 03:57:34;;;;;;;0.05;0.05;;;;;;;;;;6307317;22;20009;-89
2023/03/06 03:59:59;;;;;;;0.10;0.10;;;3.80;99.90;;;;;;6282231;22;20010;-91
2023/03/06 04:02:25;;;;;;;0.10;0.10;;;;;;;;;;6308054;22;20386;-88
2023/03/06 04:04:51;;;;;;;0.00;0.00;;;;;;;;;;6282182;22;19999;-89
2023/03/06 04:07:17;;;;;;;0.10;0.10;;;;;;;;;;6281432;22;20003;-88
2023/03/06 04:09:43;;;;;;;0.00;0.00;;;;;;;;;;6281240;22;19999;-89
2023/03/06 04:12:09;;;;;;;0.10;0.10;;;;;;;;;;6281294;22;20003;-90
2023/03/06 04:14:34;;;;;;;0.10;0.10;;;3.70;99.90;;;;;;6281538;22;20003;-89
2023/03/06 04:16:59;;;;;;;0.10;0.10;;;3.70;99.90;;;;;;6307749;22;20003;-89
2023/03/06 04:19:25;;;;;;;0.10;0.10;;;;;;;;;;6306501;22;20045;-89
2023/03/06 04:21:51;;;;;;;0.10;0.10;;;3.60;99.90;;;;;;6309241;22;20003;-89
2023/03/06 04:24:17;;;;;;;0.00;0.00;;;;;;;;;;6307071;22;20003;-89
2023/03/06 04:26:43;;;;;;;0.10;0.10;;;;;;;;;;6281141;22;20003;-89
2023/03/06 04:29:08;;;;;;;0.10;0.10;;;3.50;99.90;;;;;;6280639;22;20078;-89
2023/03/06 04:31:34;;;;;;;0.10;0.10;;;;;;;;;;6306048;22;19995;-88
2023/03/06 04:34:00;;;;;;;0.00;0.00;;;;;;;;;;6280507;22;20004;-89
2023/03/06 04:36:32;;;;;;;0.10;0.10;;;3.50;99.90;;;;;;6281955;22;20011;-89
2023/03/06 04:38:58;;;;;;;0.10;0.10;;;;;;;;;;6281753;22;20029;-90
2023/03/06 04:41:24;;;;;;;0.10;0.10;;;;;;;;;;6281630;22;20007;-89
2023/03/06 04:43:50;;;;;;;0.10;0.10;;;;;;;;;;6284032;22;20008;-88
2023/03/06 04:46:16;;;;;;;0.08;0.08;;;3.40;99.90;;;;;;6280652;22;20003;-89
2023/03/06 04:48:42;;;;;;;0.10;0.10;;;3.60;99.90;;;;;;6309252;22;20010;-89
2023/03/06 04:51:09;;;;;;;0.10;0.10;;;3.50;99.90;;;;;;6281261;22;20008;-88
2023/03/06 04:53:34;;;;;;;0.10;0.10;;;3.40;99.90;;;;;;6282275;22;20022;-90
2023/03/06 04:56:00;;;;;;;0.10;0.10;;;3.40;99.90;;;;;;6306026;22;20003;-90
2023/03/06 04:58:25;;;;;;;0.10;0.10;;;3.50;99.90;;;;;;6306915;22;20003;-89
2023/03/06 05:00:51;;;;;;;0.10;0.10;;;3.40;99.90;;;;;;6304076;22;20003;-88
2023/03/06 05:03:16;;;;;;;0.00;0.00;;;3.40;99.90;;;;;;6306130;22;20061;-90
2023/03/06 05:05:42;;;;;;;0.10;0.10;;;3.30;99.90;;;;;;6306524;22;20037;-89
2023/03/06 05:08:14;;;;;;;0.10;0.10;;;3.40;99.90;;;;;;6306004;22;20481;-89
2023/03/06 05:10:40;;;;;;;0.10;0.10;;;;;;;;;;6278896;22;20003;-89
2023/03/06 05:13:06;;;;;;;0.08;0.08;;;;;;;;;;6307689;22;20007;-92
2023/03/06 05:15:31;;;;;;;0.10;0.10;;;3.60;99.90;;;;;;6279866;22;20064;-89
2023/03/06 05:17:57;;;;;;;0.05;0.05;;;3.50;99.90;;;;;;6305175;22;20060;-89
2023/03/06 05:20:23;;;;;;;0.05;0.05;;;3.60;99.90;;;;;;6303518;22;20529;-90
2023/03/06 05:22:48;;;;;;;0.10;0.10;;;3.60;99.90;;;;;;6307166;22;19996;-90
2023/03/06 05:25:14;;;;;;;0.08;0.08;;;;;;;;;;6303454;22;20010;-89
2023/03/06 05:27:40;;;;;;;0.10;0.10;;;3.60;99.90;;;;;;6281004;22;20063;-90
2023/03/06 05:30:06;;;;;;;0.10;0.10;;;3.50;99.90;;;;;;6304567;22;20123;-89
2023/03/06 05:32:32;;;;;;;0.10;0.10;;;;;;;;;;6307003;22;20450;-90
2023/03/06 05:34:58;;;;;;;0.10;0.10;;;3.50;99.90;;;;;;6278981;22;19999;-91
2023/03/06 05:37:23;;;;;;;0.00;0.00;;;3.40;99.90;;;;;;6305978;22;20000;-90
2023/03/06 05:39:50;;;;;;;0.00;0.00;;;;;;;;;;6307719;22;20309;-89
2023/03/06 05:42:15;;;;;;;0.00;0.00;;;3.60;99.90;;;;;;6279390;22;19999;-90
2023/03/06 05:44:41;;;;;;;0.00;0.00;;;3.50;99.90;;;;;;6305728;22;20344;-90
2023/03/06 05:47:07;;;;;;;0.08;0.08;;;;;;;;;;6309404;22;20066;-89
2023/03/06 05:49:34;;;;;;;0.10;0.10;;;3.50;99.90;;;;;;6281396;22;20000;-89
2023/03/06 05:52:02;;;;;;;0.10;0.10;;;;;;;;;;6279573;22;20026;-89
2023/03/06 05:54:28;;;;;;;0.00;0.00;;;;;;;;;;6281991;22;20003;-88
2023/03/06 05:56:56;;;;;;;0.00;0.00;;;3.40;99.90;;;;;;6281982;22;20384;-88
2023/03/06 05:59:22;;;;;;;0.10;0.10;;;;;;;;;;6306372;22;20044;-88
2023/03/06 06:01:47;;;;;;;0.10;0.10;;;3.40;99.90;;;;;;6280168;22;20130;-89
2023/03/06 06:04:14;;;;;;;0.00;0.00;;;3.50;99.90;;;;;;6308945;22;20027;-90
2023/03/06 06:06:39;;;;;;;0.00;0.00;;;3.50;99.90;;;;;;6307429;22;20083;-89
2023/03/06 06:09:05;;;;;;;0.10;0.10;;;3.50;99.90;;;;;;6308663;22;20327;-89
2023/03/06 06:11:30;;;;;;;0.10;0.10;;;3.50;99.90;;;;;;6305768;22;19995;-89
2023/03/06 06:13:56;;;;;;;0.00;0.00;;;3.50;99.90;;;;;;6281803;22;20003;-89
2023/03/06 06:16:22;;;;;;;0.10;0.10;;;;;;;;;;6309331;22;20006;-90
2023/03/06 06:18:47;;;;;;;0.05;0.05;;;;;;;;;;6307636;22;20013;-89
2023/03/06 06:21:14;;;;;;;0.10;0.10;;;;;;;;;;6280243;22;20033;-89
2023/03/06 06:23:40;;;;;;;0.00;0.00;;;3.60;99.90;;;;;;6279453;22;20072;-89
2023/03/06 06:26:07;;;;;;;0.10;0.10;;;3.60;99.90;;;;;;6279474;22;20029;-88
2023/03/06 06:28:34;;;;;;;0.10;0.10;;;;;;;;;;6277953;22;20003;-89
2023/03/06 06:31:00;;;;;;;0.10;0.10;;;;;;;;;;6279331;22;20078;-88
2023/03/06 06:33:26;;;;;;;0.10;0.10;;;;;;;;;;6281831;22;20086;-90
2023/03/06 06:35:52;;;;;;;0.10;0.10;;;;;;;;;;6282417;22;20462;-89
2023/03/06 06:38:18;;;;;;;0.10;0.10;;;;;;;;;;6281105;22;19999;-89
2023/03/06 06:40:44;;;;;;;0.10;0.10;;;;;;;;;;6281718;22;20034;-89
2023/03/06 06:43:09;;;;;;;0.10;0.10;;;3.70;99.90;;;;;;6281462;22;20039;-88
2023/03/06 06:45:35;;;;;;;0.10;0.10;;;3.80;99.90;;;;;;6306680;22;20374;-89
2023/03/06 06:48:01;;;;;;;0.10;0.10;;;3.80;99.90;;;;;;6307382;22;19999;-91
2023/03/06 06:50:26;;;;;;;0.10;0.10;;;3.80;99.90;;;;;;6282211;22;20098;-89
2023/03/06 06:52:52;;;;;;;0.08;0.08;;;;;;;;;;6307318;22;20011;-89
2023/03/06 06:55:18;;;;;;;0.00;0.00;;;3.90;99.90;;;;;;6281273;22;20007;-89
2023/03/06 06:57:44;;;;;;;0.00;0.00;;;;;;;;;;6306227;22;20058;-89
2023/03/06 07:00:13;;;;;;;0.00;0.00;;;4.00;99.90;;;;;;6280269;22;20094;-91
2023/03/06 07:02:39;;;;;;;0.10;0.10;;;;;;;;;;6280446;22;20008;-88
2023/03/06 07:05:05;;;;;;;0.10;0.10;;;;;;;;;;6281073;22;20086;-89
2023/03/06 07:07:33;;;;;;;0.10;0.10;;;4.10;99.90;;;;;;6278917;22;20007;-87
2023/03/06 07:09:59;;;;;;;0.00;0.00;;;4.00;99.90;;;;;;6281659;22;20003;-89
2023/03/06 07:12:25;;;;;;;0.10;0.10;;;;;;;;;;6306317;22;20134;-89
2023/03/06 07:14:50;;;;;;;0.10;0.10;;;4.20;99.90;;;;;;6280580;22;20018;-89
2023/03/06 07:17:16;;;;;;;0.00;0.00;;;;;;;;;;6306967;22;19999;-89
2023/03/06 07:19:42;;;;;;;0.03;0.03;;;;;;;;;;6280056;22;19995;-88
2023/03/06 07:22:08;;;;;;;0.10;0.10;;;4.20;99.90;;;;;;6280787;22;20018;-90
2023/03/06 07:24:34;;;;;;;0.10;0.10;;;4.20;99.90;;;;;;6305446;22;20384;-89
2023/03/06 07:26:59;;;;;;;0.10;0.10;;;4.20;99.90;;;;;;6306407;22;20030;-89
2023/03/06 07:29:25;;;;;;;0.00;0.00;;;;;;;;;;6307496;22;20343;-90
2023/03/06 07:31:51;;;;;;;0.10;0.10;;;4.20;99.90;;;;;;6283110;22;19999;-89
2023/03/06 07:34:17;;;;;;;0.00;0.00;;;;;;;;;;6309561;22;20003;-89
2023/03/06 07:36:42;;;;;;;0.10;0.10;;;4.30;99.90;;;;;;6284256;22;20013;-89
2023/03/06 07:39:08;;;;;;;0.10;0.10;;;4.40;99.90;;;;;;6309398;22;20008;-89
2023/03/06 07:41:34;;;;;;;0.10;0.10;;;4.40;99.90;;;;;;6283941;22;20010;-90
2023/03/06 07:44:00;;;;;;;0.10;0.10;;;4.60;99.90;;;;;;6308404;22;20029;-88
2023/03/06 07:46:26;;;;;;;0.10;0.10;;;;;;;;;;6309970;22;19999;-90
2023/03/06 07:48:51;;;;;;;0.10;0.10;;;4.60;99.90;;;;;;6282700;22;20011;-89
2023/03/06 07:51:20;;;;;;;0.00;0.00;;;4.50;99.90;;;;;;6282152;22;20000;-89
2023/03/06 07:53:47;;;;;;;0.10;0.10;;;4.50;99.90;;;;;;6281794;22;20076;-88
2023/03/06 07:56:13;;;;;;;0.10;0.10;;;4.50;99.90;;;;;;6279759;22;20050;-89
2023/03/06 07:58:41;;;;;;;0.10;0.10;;;4.40;99.90;;;;;;6307612;22;20611;-88
2023/03/06 08:01:15;;;;;;;0.10;0.10;;;3.00;99.90;;;;;;6281213;22;20003;-89
2023/03/06 08:03:41;;;;;;;0.10;0.10;;;4.40;99.90;;;;;;6281568;22;20053;-89
2023/03/06 08:06:15;;;;;;;0.10;0.10;;;3.90;99.90;;;;;;6280885;22;20026;-89
2023/03/06 08:08:43;;;;;;;0.10;0.10;;;4.50;99.90;;;;;;6281048;22;20014;-90
2023/03/06 08:11:10;;;;;;;0.00;0.00;;;4.40;99.90;;;;;;6281569;22;20008;-89
2023/03/06 08:13:37;;;;;;;0.10;0.10;;;;;;;;;;6283639;22;20348;-90
2023/03/06 08:16:03;;;;;;;0.10;0.10;;;4.60;99.90;;;;;;6280859;22;20014;-89
2023/03/06 08:18:28;;;;;;;0.10;0.10;;;4.50;99.90;;;;;;6307110;22;20004;-88
2023/03/06 08:21:09;;;;;;;0.10;0.10;;;4.50;99.90;;;;;;6304830;22;20007;-90
2023/03/06 08:23:35;;;;;;;0.10;0.10;;;;;;;;;;6305405;22;19999;-88
2023/03/06 08:26:06;;;;;;;0.10;0.10;;;4.60;99.90;;;;;;6280097;22;20078;-89
2023/03/06 08:28:32;;;;;;;0.10;0.10;;;;;;;;;;6280932;22;20052;-90
2023/03/06 08:31:29;;;;;;;0.10;0.10;;;4.50;99.90;;;;;;6279651;22;20011;-89
2023/03/06 08:33:56;;;;;;;0.10;0.10;;;4.50;99.90;;;;;;6282477;22;20007;-89
2023/03/06 08:36:45;;;;;;;0.10;0.10;;;4.40;99.90;;;;;;6280579;22;20031;-89
2023/03/06 08:39:12;;;;;;;0.10;0.10;;;;;;;;;;6280537;22;20003;-90
2023/03/06 08:41:38;;;;;;;0.10;0.10;;;;;;;;;;6277743;22;20007;-90
2023/03/06 08:44:05;;;;;;;0.10;0.10;;;4.40;99.90;;;;;;6277971;22;20054;-88
2023/03/06 08:46:32;;;;;;;0.10;0.10;;;2.00;99.90;;;;;;6279304;22;20011;-89
2023/03/06 08:48:58;;;;;;;0.10;0.10;;;;;;;;;;6279115;22;20003;-89
2023/03/06 08:51:24;;;;;;;0.10;0.10;;;;;;;;;;6278523;22;20747;-89
2023/03/06 08:53:50;;;;;;;0.10;0.10;;;;;;;;;;6278914;22;19999;-89
2023/03/06 08:56:16;;;;;;;0.03;0.03;;;;;;;;;;6279349;22;20007;-89
2023/03/06 08:58:42;;;;;;;0.10;0.10;;;4.50;99.90;;;;;;6279211;22;20010;-89
2023/03/06 09:01:23;;;;;;;0.10;0.10;;;4.40;99.90;;;;;;6304156;22;20498;-89
2023/03/06 09:03:52;;;;;;;0.10;0.10;;;4.40;99.90;;;;;;6278072;22;20007;-88
2023/03/06 09:06:17;;;;;;;0.00;0.00;;;4.40;99.90;;;;;;6278938;22;20470;-91
2023/03/06 09:08:43;;;;;;;0.00;0.00;;;;;;;;;;6305236;22;20003;-90
2023/03/06 09:11:13;;;;;;;0.10;0.10;;;4.10;99.90;;;;;;6278426;22;19995;-88
2023/03/06 09:13:39;;;;;;;0.10;0.10;;;;;;;;;;6306035;22;20003;-90
2023/03/06 09:16:05;;;;;;;0.10;0.10;;;4.30;99.90;;;;;;6276675;22;20007;-90
2023/03/06 09:18:30;;;;;;;0.10;0.10;;;;;;;;;;6302253;22;20031;-90
2023/03/06 09:20:56;;;;;;;0.10;0.10;;;4.50;99.90;;;;;;6277872;22;19999;-90
2023/03/06 09:23:22;;;;;;;0.10;0.10;;;;;;;;;;6302755;22;20003;-89
2023/03/06 09:25:55;;;;;;;0.10;0.10;;;4.60;99.90;;;;;;6277070;22;20497;-90
2023/03/06 09:28:21;;;;;;;0.10;0.10;;;;;;;;;;6279054;22;20007;-89
2023/03/06 09:30:51;;;;;;;0.00;0.00;;;;;;;;;;6276751;22;20003;-90
2023/03/06 09:33:17;;;;;;;0.10;0.10;;;;;;;;;;6274295;22;20007;-90
2023/03/06 09:35:54;;;;;;;0.00;0.00;;;4.30;99.90;;;;;;6278513;22;20432;-90
2023/03/06 09:38:23;;;;;;;0.00;0.00;;;4.40;99.90;;;;;;6278985;22;20013;-90
2023/03/06 09:41:00;;;;;;;0.10;0.10;;;4.00;99.90;;;;;;6279315;22;20003;-90
2023/03/06 09:43:36;;;;;;;0.10;0.10;;;4.20;99.90;;;;;;6274218;22;20265;-91
2023/03/06 09:46:16;;;;;;;0.10;0.10;;;4.20;99.90;;;;;;6279386;22;20408;-89
2023/03/06 09:48:53;;;;;;;0.10;0.10;;;4.40;99.90;;;;;;6276062;22;20007;-90
2023/03/06 09:51:24;;;;;;;0.10;0.10;;;4.30;99.90;;;;;;6277781;22;20046;-90
2023/03/06 09:54:00;;;;;;;0.10;0.10;;;4.10;99.90;;;;;;6278585;22;20003;-90
2023/03/06 09:56:30;;;;;;;0.00;0.00;;;4.20;99.90;;;;;;6279862;22;20011;-91
2023/03/06 09:59:11;;;;;;;0.05;0.05;;;4.10;99.90;;;;;;6279401;22;19999;-90
2023/03/06 10:01:44;;;;;;;0.10;0.10;;;4.10;99.90;;;;;;6279012;22;20034;-90
2023/03/06 10:04:27;;;;;;;0.10;0.10;;;4.10;99.90;;;;;;6277123;22;20030;-90
2023/03/06 10:07:13;;;;;;;0.10;0.10;;;4.00;99.90;;;;;;6279209;22;20004;-89
2023/03/06 10:09:55;;;;;;;0.05;0.05;;;4.00;99.90;;;;;;6278827;22;20562;-90
2023/03/06 10:12:32;;;;;;;0.10;0.10;;;4.10;99.90;;;;;;6280102;22;20435;-89
2023/03/06 10:15:18;;;;;;;0.10;0.10;;;4.00;99.90;;;;;;6280054;22;20195;-90
2023/03/06 10:17:43;;;;;;;0.05;0.05;;;4.20;99.90;;;;;;6278231;22;20022;-89
2023/03/06 10:20:25;;;;;;;0.10;0.10;;;4.20;99.90;;;;;;6305534;22;20007;-89
2023/03/06 10:22:59;;;;;;;0.10;0.10;;;4.20;99.90;;;;;;6277306;22;20007;-91
2023/03/06 10:25:29;;;;;;;0.10;0.10;;;3.90;99.90;;;;;;6304402;22;20015;-90
2023/03/06 10:28:24;;;;;;;0.10;0.10;;;4.00;99.90;;;;;;6277678;22;20194;-90
2023/03/06 10:30:59;;;;;;;0.10;0.10;;;3.90;99.90;;;;;;6279814;22;20007;-91
2023/03/06 10:33:38;;;;;;;0.10;0.10;;;3.80;99.90;;;;;;6280515;22;20027;-90
2023/03/06 10:36:04;;;;;;;0.10;0.10;;;3.70;99.90;;;;;;6277100;22;20014;-89
2023/03/06 10:38:30;;;;;;;0.10;0.10;;;;;;;;;;6305133;22;20248;-89
2023/03/06 10:41:10;;;;;;;0.03;0.03;;;3.50;99.90;;;;;;6278284;22;20006;-90
2023/03/06 10:43:59;;;;;;;0.10;0.10;;;3.60;99.90;;;;;;6279525;22;20014;-90
2023/03/06 10:46:30;;;;;;;0.10;0.10;;;3.60;99.90;;;;;;6279162;22;19999;-91
2023/03/06 10:48:57;;;;;;;0.10;0.10;;;3.80;99.90;;;;;;6278080;22;20078;-90
2023/03/06 10:51:25;;;;;;;0.10;0.10;;;3.80;99.90;;;;;;6279678;22;20008;-90
2023/03/06 10:53:51;;;;;;;0.10;0.10;;;;;;;;;;6274214;22;20007;-90
2023/03/06 10:56:38;;;;;;;0.00;0.00;;;4.40;99.90;;;;;;6279063;22;20090;-89
2023/03/06 10:59:21;;;;;;;0.00;0.00;;;4.40;99.90;;;;;;6280296;22;20011;-89
2023/03/06 11:01:53;;;;;;;0.00;0.00;;;4.50;99.90;;;;;;6279695;22;20013;-90
2023/03/06 11:04:29;;;;;;;0.10;0.10;;;4.40;99.90;;;;;;6281907;22;20341;-90
2023/03/06 11:07:18;;;;;;;0.08;0.08;;;4.50;99.90;;;;;;6280144;22;20007;-91
2023/03/06 11:09:58;;;;;;;0.10;0.10;;;4.40;99.90;;;;;;6283038;22;20023;-90
2023/03/06 11:12:33;;;;;;;0.10;0.10;;;4.30;99.90;;;;;;6311919;22;19995;-90
2023/03/06 11:15:14;;;;;;;0.10;0.10;;;4.10;99.90;;;;;;6282602;22;20088;-89
2023/03/06 11:17:52;;;;;;;0.10;0.10;;;4.00;99.90;;;;;;6283538;22;20029;-92
2023/03/06 11:20:28;;;;;;;0.10;0.10;;;4.00;99.90;;;;;;6312710;22;20006;-90
2023/03/06 11:23:05;;;;;;;0.10;0.10;;;3.80;99.90;;;;;;6311105;22;20003;-91
2023/03/06 11:25:49;;;;;;;0.10;0.10;;;4.00;99.90;;;;;;6283968;22;20000;-91
2023/03/06 11:28:15;;;;;;;0.10;0.10;;;;;;;;;;6284212;22;20459;-90
2023/03/06 11:30:46;;;;;;;0.05;0.05;;;4.00;99.90;;;;;;6286011;22;20029;-91
2023/03/06 11:33:15;;;;;;;0.10;0.10;;;4.10;99.90;;;;;;6311801;22;20003;-90
2023/03/06 11:35:52;;;;;;;0.10;0.10;;;4.10;99.90;;;;;;6282959;22;20003;-91
2023/03/06 11:38:32;;;;;;;0.10;0.10;;;4.30;99.90;;;;;;6279640;22;20097;-90
2023/03/06 11:41:01;;;;;;;0.10;0.10;;;4.10;99.90;;;;;;6279270;22;20004;-89
2023/03/06 11:43:47;;;;;;;0.10;0.10;;;4.30;99.90;;;;;;6276938;22;20022;-90
2023/03/06 11:46:23;;;;;;;0.00;0.00;;;4.30;99.90;;;;;;6281840;22;19999;-90
2023/03/06 11:48:55;;;;;;;0.00;0.00;;;4.30;99.90;;;;;;6281054;22;20553;-90
2023/03/06 11:51:27;;;;;;;0.10;0.10;;;4.00;99.90;;;;;;6282717;22;20443;-91
2023/03/06 11:53:54;;;;;;;0.03;0.03;;;4.30;99.90;;;;;;6281683;22;20011;-91
2023/03/06 11:56:30;;;;;;;0.10;0.10;;;4.30;99.90;;;;;;6308506;22;20393;-91
2023/03/06 11:59:20;;;;;;;0.00;0.00;;;4.40;99.90;;;;;;6282762;22;20011;-91
2023/03/06 12:01:56;;;;;;;0.10;0.10;;;4.70;99.90;;;;;;6283076;22;20013;-90
2023/03/06 12:04:46;;;;;;;0.10;0.10;;;5.10;99.90;;;;;;6283552;22;20347;-90
2023/03/06 12:07:11;;;;;;;0.10;0.10;;;;;;;;;;6284120;22;20323;-90
2023/03/06 12:09:55;;;;;;;0.10;0.10;;;5.40;99.90;;;;;;6283347;22;19999;-90
2023/03/06 12:12:41;;;;;;;0.10;0.10;;;5.50;99.90;;;;;;6283647;22;20086;-90
2023/03/06 12:15:30;;;;;;;0.10;0.10;;;5.80;99.90;;;;;;6284432;22;20069;-90
2023/03/06 12:18:08;;;;;;;0.10;0.10;;;6.10;99.90;;;;;;6262408;22;20003;-91
2023/03/06 12:20:48;;;;;;;0.10;0.10;;;6.20;99.90;;;;;;6284367;22;20086;-90
2023/03/06 12:23:22;;;;;;;;;;;6.10;99.90;;;;;;6286003;22;20007;-91
2023/03/06 12:26:01;;;;;;;0.10;0.10;;;6.20;99.90;;;;;;6285895;22;19909;-90
2023/03/06 12:28:50;;;;;;;0.10;0.10;;;6.20;99.90;;;;;;6284234;22;20012;-90
2023/03/06 12:31:30;;;;;;;0.10;0.10;;;6.40;99.90;;;;;;6281848;22;20023;-90
2023/03/06 12:34:33;;;;;;;0.10;0.10;;;6.50;99.90;;;;;;6282251;22;20060;-90
2023/03/06 12:37:15;;;;;;;0.10;0.10;;;6.60;99.90;;;;;;6281266;22;20026;-91
2023/03/06 12:40:08;;;;;;;0.10;0.10;;;6.80;99.90;;;;;;6280414;22;20007;-91
2023/03/06 12:42:50;;;;;;;0.10;0.10;;;7.00;99.90;;;;;;6282844;22;20010;-91
2023/03/06 12:45:18;;;;;;;0.10;0.10;;;7.40;99.90;;;;;;6282017;22;20391;-91
2023/03/06 12:47:46;;;;;;;0.10;0.10;;;7.40;99.90;;;;;;6282892;22;20034;-90
2023/03/06 12:50:17;;;;;;;0.10;0.10;;;7.50;99.90;;;;;;6281726;22;20007;-91
2023/03/06 12:52:44;;;;;;;0.05;0.05;;;10.00;99.90;;;;;;6281369;22;20034;-89
2023/03/06 12:55:15;;;;;;;0.10;0.10;;;7.30;99.90;;;;;;6281382;22;20340;-90
2023/03/06 12:57:41;;;;;;;0.10;0.10;;;;;;;;;;6281133;22;20057;-90
2023/03/06 13:00:58;;;;;;;0.10;0.10;;;7.00;99.90;;;;;;6285271;22;20003;-90
2023/03/06 13:03:45;;;;;;;0.10;0.10;;;7.20;99.90;;;;;;6192043;23;20005;-93
2023/03/06 13:10:05;;;;;;;0.10;0.10;;;7.20;99.90;;;;;;6198458;23;19985;-94
2023/03/06 13:12:31;;;;;;;0.10;0.10;;;;;;;;;;6176210;22;20077;-93
2023/03/06 13:14:59;;;;;;;0.00;0.00;;;6.80;99.90;;;;;;6297032;22;19999;-94
2023/03/06 13:18:11;;;;;;;0.10;0.10;;;6.80;99.90;;;;;;6293288;22;20004;-93
2023/03/06 13:20:53;;;;;;;0.10;0.10;;;6.30;99.90;;;;;;6253952;22;20003;-93
2023/03/06 13:23:30;;;;;;;0.10;0.10;;;6.40;99.90;;;;;;6292437;22;20558;-94
2023/03/06 13:29:33;;;;;;;;;;;;;;;;;;;;;
2023/03/06 13:32:27;;;;;;;0.10;0.10;;;6.80;99.90;;;;;;6269102;22;20031;-92
2023/03/06 13:37:48;;;;;;;0.10;0.10;;;7.00;99.90;;;;;;6285470;22;20043;-94
2023/03/06 13:40:23;;;;;;;0.10;0.10;;;7.20;99.90;;;;;;6257886;22;20008;-92
2023/03/06 13:42:49;;;;;;;0.10;0.10;;;;;;;;;;6257331;22;20011;-93
2023/03/06 13:45:23;;;;;;;0.10;0.10;;;7.20;99.90;;;;;;6255200;22;20008;-92
2023/03/06 13:47:55;;;;;;;0.10;0.10;;;7.20;99.90;;;;;;6256635;22;20011;-93
2023/03/06 13:50:35;;;;;;;0.10;0.10;;;7.20;99.90;;;;;;6259084;22;20011;-92
2023/03/06 13:53:19;;;;;;;0.10;0.10;;;7.10;99.90;;;;;;6257114;22;20003;-91
2023/03/06 13:55:57;;;;;;;0.10;0.10;;;7.10;99.90;;;;;;6258534;22;20042;-92
2023/03/06 13:58:53;;;;;;;0.10;0.10;;;6.80;99.90;;;;;;6257454;22;20011;-93
2023/03/06 14:01:34;;;;;;;0.10;0.10;;;6.50;99.90;;;;;;6254153;22;20000;-92
2023/03/06 14:04:32;;;;;;;0.10;0.10;;;6.50;99.90;;;;;;6260171;22;20003;-92
2023/03/06 14:07:03;;;;;;;0.05;0.05;;;6.60;99.90;;;;;;6267173;22;20000;-92
2023/03/06 14:09:34;;;;;;;0.10;0.10;;;6.50;99.90;;;;;;6267776;22;20003;-92
2023/03/06 14:12:05;;;;;;;0.10;0.10;;;6.50;99.90;;;;;;6267240;22;20004;-93
2023/03/06 14:14:40;;;;;;;0.03;0.03;;;6.50;99.90;;;;;;6266880;22;20004;-94
2023/03/06 14:17:22;;;;;;;0.10;0.10;;;6.40;99.10;;;;;;6267094;22;20007;-92
2023/03/06 14:19:48;;;;;;;0.10;0.10;;;;;;;;;;6267183;22;20004;-91
2023/03/06 14:22:19;;;;;;;0.10;0.10;;;6.40;99.90;;;;;;6265666;22;20063;-92
2023/03/06 14:25:12;;;;;;;0.00;0.00;;;6.50;99.90;;;;;;6268014;22;20344;-92
2023/03/06 14:27:46;;;;;;;0.10;0.10;;;6.40;99.90;;;;;;6268128;22;19999;-92
2023/03/06 14:30:19;;;;;;;0.10;0.10;;;6.40;99.90;;;;;;6266314;22;19995;-92
2023/03/06 14:32:46;;;;;;;0.10;0.10;;;6.40;99.90;;;;;;6265616;22;20000;-93
2023/03/06 14:35:30;;;;;;;0.10;0.10;;;6.60;99.90;;;;;;6265978;22;20000;-92
2023/03/06 14:38:05;;;;;;;0.10;0.10;;;6.50;99.90;;;;;;6263967;22;20090;-93
2023/03/06 14:40:41;;;;;;;0.10;0.10;;;6.60;99.90;;;;;;6265206;22;20004;-92
2023/03/06 14:43:27;;;;;;;0.05;0.05;;;6.70;99.40;;;;;;6239163;22;20012;-93
2023/03/06 14:45:56;;;;;;;0.10;0.10;;;6.70;98.20;;;;;;6238388;22;20027;-92
2023/03/06 14:48:24;;;;;;;0.10;0.10;;;6.60;97.60;;;;;;6237878;22;20030;-92
2023/03/06 14:50:56;;;;;;;0.10;0.10;;;6.70;98.00;;;;;;6232417;23;20000;-92
2023/03/06 14:53:25;;;;;;;0.10;0.10;;;6.80;98.20;;;;;;6207613;23;20015;-92
2023/03/06 14:55:58;;;;;;;0.10;0.10;;;6.60;96.10;;;;;;6184213;23;20004;-91
2023/03/06 14:58:44;;;;;;;0.10;0.10;;;6.50;96.50;;;;;;6228469;23;20068;-94
2023/03/06 15:01:14;;;;;;;0.10;0.10;;;6.60;98.10;;;;;;6227913;23;20008;-91
2023/03/06 15:03:53;;;;;;;0.10;0.10;;;6.80;98.00;;;;;;6227849;23;20001;-92
2023/03/06 15:06:22;;;;;;;0.10;0.10;;;6.90;97.80;;;;;;6237045;23;20399;-92
2023/03/06 15:08:58;;;;;;;0.10;0.10;;;7.00;98.70;;;;;;6235442;23;20011;-92
2023/03/06 15:11:24;;;;;;;0.10;0.10;;;;;;;;;;6242087;23;20076;-93
2023/03/06 15:14:17;;;;;;;0.10;0.10;;;7.00;98.70;;;;;;6242947;23;20083;-92
2023/03/06 15:16:46;;;;;;;0.10;0.10;;;;;;;;;;6243282;23;20388;-93
2023/03/06 15:19:49;;;;;;;0.10;0.10;;;7.10;98.70;;;;;;6242501;23;20003;-93
2023/03/06 15:26:20;;;;;;;0.10;0.10;;;7.00;95.00;;;;;;6215721;23;20039;-91
2023/03/06 15:29:11;;;;;;;0.10;0.10;;;7.00;96.90;;;;;;6264694;23;20005;-93
2023/03/06 15:31:38;;;;;;;;;;;7.00;96.90;;;;;;6242121;23;20034;-94
2023/03/06 15:34:35;;;;;;;0.10;0.10;;;6.90;93.80;;;;;;6213672;23;19904;-92
2023/03/06 15:40:55;;;;;;;0.10;0.10;;;6.80;94.20;;;;;;6207186;23;20017;-92
2023/03/06 15:43:24;;;;;;;0.10;0.10;;;;;;;;;;6229056;23;20048;-91
2023/03/06 15:47:06;;;;;;;0.10;0.10;;;6.80;93.70;;;;;;6264624;22;20031;-93
2023/03/06 15:49:32;;;;;;;0.10;0.10;;;;;;;;;;6242158;23;20015;-91
2023/03/06 15:52:29;;;;;;;0.00;0.00;;;6.70;96.70;;;;;;6233385;23;20088;-92
2023/03/06 15:55:18;;;;;;;0.10;0.10;;;6.90;96.80;;;;;;6194374;23;20000;-92
2023/03/06 15:58:11;;;;;;;0.10;0.10;;;7.00;96.80;;;;;;6210011;23;20005;-93
2023/03/06 16:00:59;;;;;;;0.10;0.10;;;7.00;96.90;;;;;;6209660;23;20064;-92
2023/03/06 16:03:25;;;;;;;0.10;0.10;;;;;;;;;;6219221;23;20076;-91
2023/03/06 16:10:14;;;;;;;0.10;0.10;;;7.10;96.10;;;;;;6266529;23;20006;-92
2023/03/06 16:13:20;;;;;;;0.10;0.10;;;7.00;95.50;;;;;;6203894;23;20110;-92
2023/03/06 16:16:09;;;;;;;0.10;0.10;;;6.80;97.60;;;;;;6203146;23;20044;-93
2023/03/06 16:21:59;;;;;;;0.10;0.10;;;;;;;;;;6179141;23;20016;-94
2023/03/06 16:25:01;;;;;;;0.10;0.10;;;6.70;98.60;;;;;;6203842;23;20401;-92
2023/03/06 16:27:29;;;;;;;0.00;0.00;;;6.50;98.80;;;;;;6220357;23;20008;-92
2023/03/06 16:29:55;;;;;;;0.10;0.10;;;;;;;;;;6239111;23;20005;-92
2023/03/06 16:32:24;;;;;;;0.00;0.00;;;;;;;;;;6233943;23;20914;-89
2023/03/06 16:34:58;;;;;;;0.10;0.10;;;;;;;;;;6264079;23;20001;-91
2023/03/06 16:37:24;;;;;;;0.00;0.00;;;;;;;;;;6235091;23;20016;-92
2023/03/06 16:39:50;;;;;;;0.10;0.10;;;;;;;;;;6235372;23;20008;-90
2023/03/06 16:42:16;;;;;;;0.10;0.10;;;;;;;;;;6237706;23;20015;-92
2023/03/06 16:44:42;;;;;;;0.10;0.10;;;;;;;;;;6242242;23;19993;-95
2023/03/06 16:47:11;;;;;;;0.10;0.10;;;6.00;99.90;;;;;;6245553;23;20019;-95
2023/03/06 16:49:37;;;;;;;0.10;0.10;;;;;;;;;;6247425;23;20048;-96
2023/03/06 16:52:03;;;;;;;0.10;0.10;;;;;;;;;;6246699;23;19999;-93
2023/03/06 16:54:29;;;;;;;0.10;0.10;;;;;;;;;;6240957;23;20004;-94
2023/03/06 16:56:55;;;;;;;0.10;0.10;;;;;;;;;;6235737;23;20008;-93
2023/03/06 16:59:22;;;;;;;0.10;0.10;;;;;;;;;;6230804;23;20035;-92
2023/03/06 17:01:48;;;;;;;0.10;0.10;;;;;;;;;;6235624;23;20031;-92
2023/03/06 17:04:14;;;;;;;0.10;0.10;;;;;;;;;;6230701;23;20039;-93
2023/03/06 17:06:40;;;;;;;0.00;0.00;;;;;;;;;;6233971;23;20064;-93
2023/03/06 17:09:06;;;;;;;0.10;0.10;;;;;;;;;;6234825;23;20024;-92
2023/03/06 17:11:32;;;;;;;0.10;0.10;;;;;;;;;;6234641;23;20004;-92
2023/03/06 17:13:58;;;;;;;0.10;0.10;;;;;;;;;;6235048;23;20012;-92
2023/03/06 17:16:24;;;;;;;0.10;0.10;;;;;;;;;;6233098;23;20027;-92
2023/03/06 17:18:51;;;;;;;0.00;0.00;;;;;;;;;;6231002;23;20062;-93
2023/03/06 17:21:17;;;;;;;0.10;0.10;;;;;;;;;;6232060;23;20004;-93
2023/03/06 17:23:43;;;;;;;0.10;0.10;;;;;;;;;;6231906;23;20011;-93
2023/03/06 17:26:14;;;;;;;0.10;0.10;;;5.30;99.90;;;;;;6229816;23;20000;-93
2023/03/06 17:28:40;;;;;;;0.10;0.10;;;5.30;99.90;;;;;;6230945;23;20000;-94
2023/03/06 17:31:25;;;;;;;0.10;0.10;;;5.30;99.90;;;;;;6230385;23;20024;-93
2023/03/06 17:33:53;;;;;;;0.10;0.10;;;;;;;;;;6234080;23;20028;-93